Time,TemperatureF,DewpointF,PressureIn,WindDirection,WindDirectionDegrees,WindSpeedMPH,WindSpeedGustMPH,Humidity,HourlyPrecipIn,Conditions,Clouds,dailyrainin,SoftwareType,DateUTC
2013-03-06 00:00:00,18.3,15.0,29.22,WNW,292,8.7,8.9,87,0.00,,,0.00,WUHU21623XXSP,2013-03-06 06:00:00,
2013-03-06 00:05:00,18.0,14.4,29.22,WNW,292,10.3,10.7,86,0.00,,,0.00,WUHU21623XXSP,2013-03-06 06:05:00,
2013-03-06 00:10:00,17.8,14.2,29.23,WNW,292,10.5,10.7,86,0.00,,,0.00,WUHU21623XXSP,2013-03-06 06:10:00,
2013-03-06 00:15:00,17.4,13.8,29.22,WNW,292,8.9,10.5,86,0.00,,,0.00,WUHU21623XXSP,2013-03-06 06:15:00,
2013-03-06 00:20:00,17.2,13.6,29.23,WNW,292,6.7,9.8,86,0.00,,,0.00,WUHU21623XXSP,2013-03-06 06:20:00,
2013-03-06 00:25:00,16.9,13.3,29.23,WNW,292,4.7,9.8,86,0.00,,,0.00,WUHU21623XXSP,2013-03-06 06:25:00,
2013-03-06 00:30:00,16.9,13.6,29.23,WNW,292,4.0,8.3,87,0.00,,,0.00,WUHU21623XXSP,2013-03-06 06:30:00,
2013-03-06 00:35:00,16.9,13.6,29.24,WNW,292,3.4,4.0,87,0.00,,,0.00,WUHU21623XXSP,2013-03-06 06:35:00,
2013-03-06 00:40:00,16.9,13.6,29.24,WNW,292,2.5,3.8,87,0.00,,,0.00,WUHU21623XXSP,2013-03-06 06:40:00,
2013-03-06 00:45:00,16.9,13.6,29.24,West,270,0.9,2.5,87,0.00,,,0.00,WUHU21623XXSP,2013-03-06 06:45:00,
2013-03-06 00:50:00,17.4,14.4,29.24,WNW,292,3.4,3.4,88,0.00,,,0.00,WUHU21623XXSP,2013-03-06 06:50:00,
2013-03-06 00:55:00,17.8,14.7,29.24,WNW,292,2.7,3.4,88,0.00,,,0.00,WUHU21623XXSP,2013-03-06 06:55:00,
2013-03-06 01:00:00,18.1,15.1,29.24,WNW,292,3.6,3.6,88,0.00,,,0.00,WUHU21623XXSP,2013-03-06 07:00:00,
2013-03-06 01:05:00,18.5,15.4,29.24,WNW,292,4.0,4.0,88,0.00,,,0.00,WUHU21623XXSP,2013-03-06 07:05:00,
2013-03-06 01:10:00,18.9,15.8,29.24,WNW,292,4.7,4.7,88,0.00,,,0.00,WUHU21623XXSP,2013-03-06 07:10:00,
2013-03-06 01:15:00,19.2,16.2,29.25,WNW,292,8.7,8.7,88,0.00,,,0.00,WUHU21623XXSP,2013-03-06 07:15:00,
2013-03-06 01:20:00,19.9,17.1,29.24,WNW,292,8.9,8.9,89,0.00,,,0.00,WUHU21623XXSP,2013-03-06 07:20:00,
2013-03-06 01:25:00,20.5,17.7,29.25,WNW,292,11.4,11.4,89,0.00,,,0.00,WUHU21623XXSP,2013-03-06 07:25:00,
2013-03-06 01:30:00,21.0,18.2,29.25,WNW,292,10.5,11.4,89,0.00,,,0.00,WUHU21623XXSP,2013-03-06 07:30:00,
2013-03-06 01:35:00,21.4,18.6,29.25,WNW,292,9.2,11.0,89,0.00,,,0.00,WUHU21623XXSP,2013-03-06 07:35:00,
2013-03-06 01:40:00,21.4,18.6,29.25,WNW,292,8.3,11.0,89,0.00,,,0.00,WUHU21623XXSP,2013-03-06 07:40:00,
2013-03-06 01:45:00,21.7,18.9,29.25,WNW,292,4.3,9.8,89,0.00,,,0.00,WUHU21623XXSP,2013-03-06 07:45:00,
2013-03-06 01:50:00,21.7,18.9,29.25,WNW,292,5.6,8.7,89,0.00,,,0.00,WUHU21623XXSP,2013-03-06 07:50:00,
2013-03-06 01:55:00,22.1,19.3,29.25,WNW,292,6.0,8.3,89,0.00,,,0.00,WUHU21623XXSP,2013-03-06 07:55:00,
2013-03-06 02:00:00,22.5,19.7,29.25,WNW,292,8.1,9.4,89,0.00,,,0.00,WUHU21623XXSP,2013-03-06 08:00:00,
2013-03-06 02:06:00,22.8,20.0,29.26,WNW,292,12.3,12.3,89,0.00,,,0.00,WUHU21623XXSP,2013-03-06 08:06:00,
2013-03-06 02:11:00,23.2,20.4,29.26,WNW,292,11.9,12.3,89,0.00,,,0.00,WUHU21623XXSP,2013-03-06 08:11:00,
2013-03-06 02:16:00,23.5,20.8,29.26,WNW,292,13.0,13.0,89,0.00,,,0.00,WUHU21623XXSP,2013-03-06 08:16:00,
2013-03-06 02:21:00,23.7,20.8,29.26,WNW,292,12.8,13.0,89,0.00,,,0.00,WUHU21623XXSP,2013-03-06 08:21:00,
2013-03-06 02:26:00,23.9,21.1,29.26,WNW,292,17.7,17.7,89,0.00,,,0.00,WUHU21623XXSP,2013-03-06 08:26:00,
2013-03-06 02:31:00,24.1,21.3,29.27,WNW,292,11.9,17.7,89,0.00,,,0.00,WUHU21623XXSP,2013-03-06 08:31:00,
2013-03-06 02:36:00,24.1,21.3,29.27,WNW,292,12.8,12.8,89,0.00,,,0.00,WUHU21623XXSP,2013-03-06 08:36:00,
2013-03-06 02:41:00,24.1,21.0,29.27,WNW,292,12.3,16.1,88,0.00,,,0.00,WUHU21623XXSP,2013-03-06 08:41:00,
2013-03-06 02:46:00,24.1,21.0,29.27,WNW,292,13.6,16.1,88,0.00,,,0.00,WUHU21623XXSP,2013-03-06 08:46:00,
2013-03-06 02:51:00,24.1,21.0,29.28,NW,315,15.2,15.2,88,0.00,,,0.00,WUHU21623XXSP,2013-03-06 08:51:00,
2013-03-06 02:56:00,24.1,21.0,29.28,NW,315,12.8,15.2,88,0.00,,,0.00,WUHU21623XXSP,2013-03-06 08:56:00,
2013-03-06 03:01:00,23.9,20.8,29.28,NW,315,19.0,19.0,88,0.00,,,0.00,WUHU21623XXSP,2013-03-06 09:01:00,
2013-03-06 03:06:00,23.9,20.8,29.28,NW,315,19.0,19.0,88,0.00,,,0.00,WUHU21623XXSP,2013-03-06 09:06:00,
2013-03-06 03:11:00,23.5,20.2,29.28,NW,315,15.7,19.0,87,0.00,,,0.00,WUHU21623XXSP,2013-03-06 09:11:00,
2013-03-06 03:16:00,23.5,20.2,29.28,NW,315,18.3,18.3,87,0.00,,,0.00,WUHU21623XXSP,2013-03-06 09:16:00,
2013-03-06 03:21:00,23.5,20.2,29.28,NW,315,16.6,18.3,87,0.00,,,0.00,WUHU21623XXSP,2013-03-06 09:21:00,
2013-03-06 03:26:00,23.5,20.2,29.29,NW,315,15.7,16.6,87,0.00,,,0.00,WUHU21623XXSP,2013-03-06 09:26:00,
2013-03-06 03:31:00,23.4,20.0,29.29,NW,315,15.7,15.7,87,0.00,,,0.00,WUHU21623XXSP,2013-03-06 09:31:00,
2013-03-06 03:36:00,23.4,20.0,29.28,NW,315,17.2,17.2,87,0.00,,,0.00,WUHU21623XXSP,2013-03-06 09:36:00,
2013-03-06 03:41:00,23.4,20.0,29.29,NW,315,17.2,17.2,87,0.00,,,0.00,WUHU21623XXSP,2013-03-06 09:41:00,
2013-03-06 03:46:00,23.5,20.2,29.29,NW,315,15.9,17.2,87,0.00,,,0.00,WUHU21623XXSP,2013-03-06 09:46:00,
2013-03-06 03:51:00,23.5,20.2,29.30,NW,315,13.0,15.9,87,0.00,,,0.00,WUHU21623XXSP,2013-03-06 09:51:00,
2013-03-06 03:56:00,23.5,20.2,29.30,WNW,292,13.6,13.6,87,0.00,,,0.00,WUHU21623XXSP,2013-03-06 09:56:00,
2013-03-06 04:01:00,23.5,20.2,29.30,NW,315,13.4,14.1,87,0.00,,,0.00,WUHU21623XXSP,2013-03-06 10:01:00,
2013-03-06 04:06:00,23.5,20.2,29.30,NW,315,16.1,16.1,87,0.00,,,0.00,WUHU21623XXSP,2013-03-06 10:06:00,
2013-03-06 04:11:00,23.5,19.9,29.30,WNW,292,17.2,19.7,86,0.00,,,0.00,WUHU21623XXSP,2013-03-06 10:11:00,
2013-03-06 04:16:00,23.5,19.8,29.30,WNW,292,17.2,19.7,86,0.00,,,0.00,WUHU21623XXSP,2013-03-06 10:16:00,
2013-03-06 04:21:00,23.4,19.8,29.30,WNW,292,5.8,17.2,86,0.00,,,0.00,WUHU21623XXSP,2013-03-06 10:21:00,
2013-03-06 04:26:00,23.2,19.6,29.30,WNW,292,13.9,14.3,86,0.00,,,0.00,WUHU21623XXSP,2013-03-06 10:26:00,
2013-03-06 04:31:00,23.0,19.4,29.30,WNW,292,12.8,14.8,86,0.00,,,0.00,WUHU21623XXSP,2013-03-06 10:31:00,
2013-03-06 04:36:00,23.0,19.4,29.31,WNW,292,7.4,14.8,86,0.00,,,0.00,WUHU21623XXSP,2013-03-06 10:36:00,
2013-03-06 04:41:00,23.0,19.4,29.31,WNW,292,14.3,14.3,86,0.00,,,0.00,WUHU21623XXSP,2013-03-06 10:41:00,
2013-03-06 04:46:00,22.8,19.2,29.32,WNW,292,13.4,14.3,86,0.00,,,0.00,WUHU21623XXSP,2013-03-06 10:46:00,
2013-03-06 04:51:00,22.8,19.2,29.31,WNW,292,13.6,13.6,86,0.00,,,0.00,WUHU21623XXSP,2013-03-06 10:51:00,
2013-03-06 04:56:00,22.8,19.2,29.32,WNW,292,14.8,14.8,86,0.00,,,0.00,WUHU21623XXSP,2013-03-06 10:56:00,
2013-03-06 05:01:00,22.6,19.0,29.32,WNW,292,11.2,14.8,86,0.00,,,0.00,WUHU21623XXSP,2013-03-06 11:01:00,
2013-03-06 05:06:00,22.6,19.0,29.31,WNW,292,11.2,14.8,86,0.00,,,0.00,WUHU21623XXSP,2013-03-06 11:06:00,
2013-03-06 05:11:00,22.6,19.0,29.31,WNW,292,12.1,12.1,86,0.00,,,0.00,WUHU21623XXSP,2013-03-06 11:11:00,
2013-03-06 05:16:00,22.5,18.9,29.32,NW,315,9.4,12.1,86,0.00,,,0.00,WUHU21623XXSP,2013-03-06 11:16:00,
2013-03-06 05:21:00,22.5,18.9,29.32,WNW,292,9.2,10.3,86,0.00,,,0.00,WUHU21623XXSP,2013-03-06 11:21:00,
2013-03-06 05:26:00,22.3,18.9,29.32,WNW,292,9.8,10.3,87,0.00,,,0.00,WUHU21623XXSP,2013-03-06 11:26:00,
2013-03-06 05:32:00,22.3,18.9,29.32,WNW,292,9.2,10.3,87,0.00,,,0.00,WUHU21623XXSP,2013-03-06 11:32:00,
2013-03-06 05:37:00,22.3,18.9,29.32,NW,315,7.8,9.2,87,0.00,,,0.00,WUHU21623XXSP,2013-03-06 11:37:00,
2013-03-06 05:42:00,22.3,18.9,29.32,NW,315,9.8,9.8,87,0.00,,,0.00,WUHU21623XXSP,2013-03-06 11:42:00,
2013-03-06 05:47:00,22.3,18.9,29.33,NW,315,16.3,16.3,87,0.00,,,0.00,WUHU21623XXSP,2013-03-06 11:47:00,
2013-03-06 05:52:00,22.3,18.9,29.33,NW,315,8.3,16.3,87,0.00,,,0.00,WUHU21623XXSP,2013-03-06 11:52:00,
2013-03-06 05:57:00,22.3,18.9,29.33,WNW,292,11.9,13.9,87,0.00,,,0.00,WUHU21623XXSP,2013-03-06 11:57:00,
2013-03-06 06:02:00,22.3,18.9,29.33,WNW,292,9.6,13.6,87,0.00,,,0.00,WUHU21623XXSP,2013-03-06 12:02:00,
2013-03-06 06:07:00,22.3,18.9,29.33,WNW,292,18.3,18.3,87,0.00,,,0.00,WUHU21623XXSP,2013-03-06 12:07:00,
2013-03-06 06:12:00,22.1,18.9,29.33,NW,315,17.2,18.3,87,0.00,,,0.00,WUHU21623XXSP,2013-03-06 12:12:00,
2013-03-06 06:17:00,21.9,18.6,29.33,WNW,292,15.7,17.2,87,0.00,,,0.00,WUHU21623XXSP,2013-03-06 12:17:00,
2013-03-06 06:22:00,21.9,18.3,29.33,NW,315,16.1,19.5,86,0.00,,,0.00,WUHU21623XXSP,2013-03-06 12:22:00,
2013-03-06 06:27:00,21.9,18.3,29.33,NW,315,14.8,19.5,86,0.00,,,0.00,WUHU21623XXSP,2013-03-06 12:27:00,
2013-03-06 06:32:00,21.9,18.3,29.33,NW,315,15.2,17.0,86,0.00,,,0.00,WUHU21623XXSP,2013-03-06 12:32:00,
2013-03-06 06:37:00,21.9,18.3,29.34,NW,315,15.4,15.4,86,0.00,,,0.00,WUHU21623XXSP,2013-03-06 12:37:00,
2013-03-06 06:42:00,21.7,18.1,29.33,NW,315,13.9,15.4,86,0.00,,,0.00,WUHU21623XXSP,2013-03-06 12:42:00,
2013-03-06 06:47:00,21.7,18.1,29.34,NNW,337,15.0,15.2,86,0.00,,,0.00,WUHU21623XXSP,2013-03-06 12:47:00,
2013-03-06 06:52:00,21.6,18.0,29.33,NW,315,14.1,15.7,86,0.00,,,0.00,WUHU21623XXSP,2013-03-06 12:52:00,
2013-03-06 06:57:00,21.6,18.0,29.34,WNW,292,14.5,15.7,86,0.00,,,0.00,WUHU21623XXSP,2013-03-06 12:57:00,
2013-03-06 07:02:00,21.6,18.0,29.34,WNW,292,13.2,16.3,86,0.00,,,0.00,WUHU21623XXSP,2013-03-06 13:02:00,
2013-03-06 07:07:00,21.4,17.8,29.34,WNW,292,15.9,19.7,86,0.00,,,0.00,WUHU21623XXSP,2013-03-06 13:07:00,
2013-03-06 07:12:00,21.4,17.8,29.35,WNW,292,14.5,19.7,86,0.00,,,0.00,WUHU21623XXSP,2013-03-06 13:12:00,
2013-03-06 07:17:00,21.4,17.8,29.35,NW,315,17.2,19.7,86,0.00,,,0.00,WUHU21623XXSP,2013-03-06 13:17:00,
2013-03-06 07:22:00,21.4,17.8,29.36,NW,315,14.8,19.7,86,0.00,,,0.00,WUHU21623XXSP,2013-03-06 13:22:00,
2013-03-06 07:27:00,21.4,17.8,29.36,NW,315,16.6,17.2,86,0.00,,,0.00,WUHU21623XXSP,2013-03-06 13:27:00,
2013-03-06 07:32:00,21.6,18.0,29.36,NW,315,20.1,20.1,86,0.00,,,0.00,WUHU21623XXSP,2013-03-06 13:32:00,
2013-03-06 07:38:00,21.6,18.0,29.36,NW,315,15.0,20.1,86,0.00,,,0.00,WUHU21623XXSP,2013-03-06 13:38:00,
2013-03-06 07:43:00,21.7,18.1,29.36,NNW,337,14.5,15.0,86,0.00,,,0.00,WUHU21623XXSP,2013-03-06 13:43:00,
2013-03-06 07:48:00,21.7,18.1,29.36,NW,315,17.7,17.7,86,0.00,,,0.00,WUHU21623XXSP,2013-03-06 13:48:00,
2013-03-06 07:53:00,21.9,18.3,29.36,NW,315,15.0,17.7,86,0.00,,,0.00,WUHU21623XXSP,2013-03-06 13:53:00,
2013-03-06 07:58:00,21.9,18.0,29.36,NW,315,17.2,17.2,85,0.00,,,0.00,WUHU21623XXSP,2013-03-06 13:58:00,
2013-03-06 08:03:00,22.1,18.2,29.36,NNW,337,14.8,22.4,85,0.00,,,0.00,WUHU21623XXSP,2013-03-06 14:03:00,
2013-03-06 08:08:00,22.3,18.4,29.36,NW,315,14.1,22.4,85,0.00,,,0.00,WUHU21623XXSP,2013-03-06 14:08:00,
2013-03-06 08:13:00,22.5,18.6,29.36,NW,315,15.9,16.6,85,0.00,,,0.00,WUHU21623XXSP,2013-03-06 14:13:00,
2013-03-06 08:18:00,22.6,18.8,29.36,NW,315,18.1,18.1,84,0.00,,,0.00,WUHU21623XXSP,2013-03-06 14:18:00,
2013-03-06 08:23:00,22.8,18.7,29.36,NW,315,15.9,18.1,84,0.00,,,0.00,WUHU21623XXSP,2013-03-06 14:23:00,
2013-03-06 08:28:00,22.8,18.7,29.37,NW,315,15.9,17.0,84,0.00,,,0.00,WUHU21623XXSP,2013-03-06 14:28:00,
2013-03-06 08:33:00,23.2,19.0,29.37,NW,315,18.1,18.1,84,0.00,,,0.00,WUHU21623XXSP,2013-03-06 14:33:00,
2013-03-06 08:38:00,23.4,18.9,29.36,NW,315,21.3,21.3,83,0.00,,,0.00,WUHU21623XXSP,2013-03-06 14:38:00,
2013-03-06 08:43:00,23.2,18.5,29.37,NW,315,19.5,21.3,82,0.00,,,0.00,WUHU21623XXSP,2013-03-06 14:43:00,
2013-03-06 08:48:00,23.2,18.5,29.38,NW,315,19.0,19.5,82,0.00,,,0.00,WUHU21623XXSP,2013-03-06 14:48:00,
2013-03-06 08:53:00,23.4,18.5,29.38,NW,315,17.2,19.5,82,0.00,,,0.00,WUHU21623XXSP,2013-03-06 14:53:00,
2013-03-06 08:58:00,23.5,18.9,29.38,NW,315,20.4,20.4,82,0.00,,,0.00,WUHU21623XXSP,2013-03-06 14:58:00,
2013-03-06 09:03:00,23.5,18.9,29.38,NW,315,21.7,21.7,82,0.00,,,0.00,WUHU21623XXSP,2013-03-06 15:03:00,
2013-03-06 09:08:00,23.7,18.8,29.38,NW,315,16.8,21.7,81,0.00,,,0.00,WUHU21623XXSP,2013-03-06 15:08:00,
2013-03-06 09:13:00,23.7,18.8,29.37,NW,315,20.1,20.1,81,0.00,,,0.00,WUHU21623XXSP,2013-03-06 15:13:00,
2013-03-06 09:18:00,24.1,19.1,29.38,NW,315,15.9,21.3,81,0.00,,,0.00,WUHU21623XXSP,2013-03-06 15:18:00,
2013-03-06 09:23:00,24.1,19.1,29.37,NW,315,20.6,21.3,81,0.00,,,0.00,WUHU21623XXSP,2013-03-06 15:23:00,
2013-03-06 09:28:00,24.4,19.5,29.38,NNW,337,17.4,20.6,81,0.00,,,0.00,WUHU21623XXSP,2013-03-06 15:28:00,
2013-03-06 09:33:00,24.6,19.7,29.38,NW,315,19.0,19.0,81,0.00,,,0.00,WUHU21623XXSP,2013-03-06 15:33:00,
2013-03-06 09:38:00,25.0,20.0,29.38,NNW,337,17.4,20.1,81,0.00,,,0.00,WUHU21623XXSP,2013-03-06 15:38:00,
2013-03-06 09:43:00,25.2,19.9,29.38,NW,315,16.1,20.1,80,0.00,,,0.00,WUHU21623XXSP,2013-03-06 15:43:00,
2013-03-06 09:48:00,25.5,20.2,29.38,NNW,337,14.8,20.1,80,0.00,,,0.00,WUHU21623XXSP,2013-03-06 15:48:00,
2013-03-06 09:53:00,25.7,20.1,29.38,NNW,337,16.6,20.1,79,0.00,,,0.00,WUHU21623XXSP,2013-03-06 15:53:00,
2013-03-06 09:58:00,25.7,20.1,29.38,NW,315,19.7,19.7,79,0.00,,,0.00,WUHU21623XXSP,2013-03-06 15:58:00,
2013-03-06 10:03:00,25.5,19.6,29.37,NW,315,20.4,20.4,78,0.00,,,0.00,WUHU21623XXSP,2013-03-06 16:03:00,
2013-03-06 10:08:00,25.7,20.1,29.38,NW,315,16.3,20.4,79,0.00,,,0.00,WUHU21623XXSP,2013-03-06 16:08:00,
2013-03-06 10:13:00,25.7,20.1,29.37,NNW,337,15.2,19.0,79,0.00,,,0.00,WUHU21623XXSP,2013-03-06 16:13:00,
2013-03-06 10:18:00,25.9,20.2,29.38,NNW,337,14.1,19.0,79,0.00,,,0.00,WUHU21623XXSP,2013-03-06 16:18:00,
2013-03-06 10:23:00,26.2,20.2,29.38,NNW,337,15.2,17.4,78,0.00,,,0.00,WUHU21623XXSP,2013-03-06 16:23:00,
2013-03-06 10:28:00,26.4,20.4,29.38,NW,315,12.3,15.2,78,0.00,,,0.00,WUHU21623XXSP,2013-03-06 16:28:00,
2013-03-06 10:33:00,26.8,20.8,29.38,NW,315,13.2,15.0,78,0.00,,,0.00,WUHU21623XXSP,2013-03-06 16:33:00,
2013-03-06 10:38:00,27.1,20.6,29.37,NW,315,15.2,15.2,77,0.00,,,0.00,WUHU21623XXSP,2013-03-06 16:38:00,
2013-03-06 10:43:00,27.5,20.9,29.37,NW,315,16.3,17.2,76,0.00,,,0.00,WUHU21623XXSP,2013-03-06 16:43:00,
2013-03-06 10:48:00,27.7,21.1,29.38,WNW,292,14.5,17.2,76,0.00,,,0.00,WUHU21623XXSP,2013-03-06 16:48:00,
2013-03-06 10:53:00,27.7,21.1,29.38,WNW,292,12.8,17.0,76,0.00,,,0.00,WUHU21623XXSP,2013-03-06 16:53:00,
2013-03-06 10:58:00,28.2,21.1,29.38,NW,315,13.0,17.7,75,0.00,,,0.00,WUHU21623XXSP,2013-03-06 16:58:00,
2013-03-06 11:03:00,28.2,21.3,29.38,NNW,337,12.3,17.7,75,0.00,,,0.00,WUHU21623XXSP,2013-03-06 17:03:00,
2013-03-06 11:08:00,28.8,21.8,29.38,NW,315,12.5,13.6,75,0.00,,,0.00,WUHU21623XXSP,2013-03-06 17:08:00,
2013-03-06 11:13:00,28.9,21.7,29.38,NW,315,14.3,16.8,74,0.00,,,0.00,WUHU21623XXSP,2013-03-06 17:13:00,
2013-03-06 11:19:00,28.9,21.7,29.37,NW,315,14.3,16.8,74,0.00,,,0.00,WUHU21623XXSP,2013-03-06 17:19:00,
2013-03-06 11:24:00,28.9,21.7,29.37,NW,315,16.6,16.6,74,0.00,,,0.00,WUHU21623XXSP,2013-03-06 17:24:00,
2013-03-06 11:29:00,29.1,21.5,29.38,WNW,292,16.3,16.6,73,0.00,,,0.00,WUHU21623XXSP,2013-03-06 17:29:00,
2013-03-06 11:34:00,28.9,21.0,29.38,NW,315,17.2,17.2,72,0.00,,,0.00,WUHU21623XXSP,2013-03-06 17:34:00,
2013-03-06 11:39:00,28.8,20.9,29.38,WNW,292,13.6,17.2,72,0.00,,,0.00,WUHU21623XXSP,2013-03-06 17:39:00,
2013-03-06 11:44:00,28.8,21.2,29.38,NW,315,17.7,17.7,73,0.00,,,0.00,WUHU21623XXSP,2013-03-06 17:44:00,
2013-03-06 11:49:00,28.6,21.0,29.38,NW,315,12.5,17.7,73,0.00,,,0.00,WUHU21623XXSP,2013-03-06 17:49:00,
2013-03-06 11:54:00,28.6,21.0,29.38,NW,315,11.2,12.5,73,0.00,,,0.00,WUHU21623XXSP,2013-03-06 17:54:00,
2013-03-06 11:59:00,28.0,20.5,29.38,NNW,337,13.4,13.4,73,0.00,,,0.00,WUHU21623XXSP,2013-03-06 17:59:00,
2013-03-06 12:04:00,28.0,20.5,29.37,NW,315,11.0,13.4,73,0.00,,,0.00,WUHU21623XXSP,2013-03-06 18:04:00,
2013-03-06 12:09:00,28.0,20.5,29.38,WNW,292,11.9,11.9,73,0.00,,,0.00,WUHU21623XXSP,2013-03-06 18:09:00,
2013-03-06 12:14:00,27.7,20.1,29.38,WNW,292,12.8,13.6,73,0.00,,,0.00,WUHU21623XXSP,2013-03-06 18:14:00,
2013-03-06 12:19:00,27.7,20.1,29.37,NW,315,11.2,13.6,73,0.00,,,0.00,WUHU21623XXSP,2013-03-06 18:19:00,
2013-03-06 12:24:00,28.0,20.8,29.38,NW,315,10.3,11.2,74,0.00,,,0.00,WUHU21623XXSP,2013-03-06 18:24:00,
2013-03-06 12:29:00,28.2,20.7,29.37,NW,315,12.1,14.3,73,0.00,,,0.00,WUHU21623XXSP,2013-03-06 18:29:00,
2013-03-06 12:34:00,28.2,20.7,29.38,WNW,292,10.5,14.3,73,0.00,,,0.00,WUHU21623XXSP,2013-03-06 18:34:00,
2013-03-06 12:39:00,28.2,20.7,29.37,WNW,292,13.4,13.4,73,0.00,,,0.00,WUHU21623XXSP,2013-03-06 18:39:00,
2013-03-06 12:44:00,28.8,21.2,29.37,WNW,292,10.3,13.4,73,0.00,,,0.00,WUHU21623XXSP,2013-03-06 18:44:00,
2013-03-06 12:49:00,28.8,21.3,29.37,WNW,292,9.2,11.6,72,0.00,,,0.00,WUHU21623XXSP,2013-03-06 18:49:00,
2013-03-06 12:54:00,28.4,20.6,29.37,WNW,292,9.2,9.2,72,0.00,,,0.00,WUHU21623XXSP,2013-03-06 18:54:00,
2013-03-06 12:59:00,27.7,20.5,29.37,NNW,337,10.1,11.6,73,0.00,,,0.00,WUHU21623XXSP,2013-03-06 18:59:00,
2013-03-06 13:04:00,27.7,20.1,29.37,NW,315,9.4,11.6,73,0.00,,,0.00,WUHU21623XXSP,2013-03-06 19:04:00,
2013-03-06 13:09:00,27.7,20.1,29.37,WNW,292,11.2,11.2,73,0.00,,,0.00,WUHU21623XXSP,2013-03-06 19:09:00,
2013-03-06 13:14:00,27.7,20.1,29.36,NW,315,11.2,11.2,73,0.00,,,0.00,WUHU21623XXSP,2013-03-06 19:14:00,
2013-03-06 13:19:00,27.3,19.8,29.36,WNW,292,10.5,11.2,73,0.00,,,0.00,WUHU21623XXSP,2013-03-06 19:19:00,
2013-03-06 13:24:00,27.7,19.8,29.36,NW,315,10.7,11.2,73,0.00,,,0.00,WUHU21623XXSP,2013-03-06 19:24:00,
2013-03-06 13:29:00,28.0,20.4,29.36,WNW,292,9.2,10.7,74,0.00,,,0.00,WUHU21623XXSP,2013-03-06 19:29:00,
2013-03-06 13:34:00,27.7,20.1,29.36,NW,315,13.2,13.2,73,0.00,,,0.00,WUHU21623XXSP,2013-03-06 19:34:00,
2013-03-06 13:39:00,27.3,19.8,29.35,NW,315,13.0,13.2,73,0.00,,,0.00,WUHU21623XXSP,2013-03-06 19:39:00,
2013-03-06 13:44:00,26.8,19.5,29.35,WNW,292,11.2,13.4,74,0.00,,,0.00,WUHU21623XXSP,2013-03-06 19:44:00,
2013-03-06 13:49:00,26.6,19.4,29.35,WNW,292,10.5,13.4,74,0.00,,,0.00,WUHU21623XXSP,2013-03-06 19:49:00,
2013-03-06 13:54:00,26.4,19.2,29.35,WNW,292,10.5,10.5,74,0.00,,,0.00,WUHU21623XXSP,2013-03-06 19:54:00,
2013-03-06 13:59:00,26.6,19.4,29.35,WNW,292,10.3,11.2,74,0.00,,,0.00,WUHU21623XXSP,2013-03-06 19:59:00,
2013-03-06 14:04:00,26.6,19.4,29.35,WNW,292,11.9,11.9,74,0.00,,,0.00,WUHU21623XXSP,2013-03-06 20:04:00,
2013-03-06 14:09:00,26.4,19.2,29.35,WNW,292,10.3,11.9,74,0.00,,,0.00,WUHU21623XXSP,2013-03-06 20:09:00,
2013-03-06 14:14:00,26.4,19.5,29.35,WNW,292,9.2,11.0,75,0.00,,,0.00,WUHU21623XXSP,2013-03-06 20:14:00,
2013-03-06 14:19:00,26.4,19.5,29.35,NW,315,10.5,11.0,75,0.00,,,0.00,WUHU21623XXSP,2013-03-06 20:19:00,
2013-03-06 14:24:00,26.4,19.5,29.34,WNW,292,8.1,11.6,75,0.00,,,0.00,WUHU21623XXSP,2013-03-06 20:24:00,
2013-03-06 14:29:00,26.6,19.7,29.34,NW,315,9.4,11.6,75,0.00,,,0.00,WUHU21623XXSP,2013-03-06 20:29:00,
2013-03-06 14:34:00,26.6,19.7,29.34,WNW,292,8.9,11.0,75,0.00,,,0.00,WUHU21623XXSP,2013-03-06 20:34:00,
2013-03-06 14:39:00,26.6,19.7,29.34,WNW,292,11.2,11.2,75,0.00,,,0.00,WUHU21623XXSP,2013-03-06 20:39:00,
2013-03-06 14:44:00,26.4,19.4,29.35,WNW,292,9.6,11.2,74,0.00,,,0.00,WUHU21623XXSP,2013-03-06 20:44:00,
2013-03-06 14:49:00,26.4,19.5,29.34,WNW,292,8.1,9.8,75,0.00,,,0.00,WUHU21623XXSP,2013-03-06 20:49:00,
2013-03-06 14:54:00,26.4,19.5,29.35,WNW,292,9.2,9.2,75,0.00,,,0.00,WUHU21623XXSP,2013-03-06 20:54:00,
2013-03-06 14:59:00,26.8,19.7,29.35,WNW,292,9.6,9.6,75,0.00,,,0.00,WUHU21623XXSP,2013-03-06 20:59:00,
2013-03-06 15:04:00,26.6,19.7,29.34,WNW,292,10.3,10.3,75,0.00,,,0.00,WUHU21623XXSP,2013-03-06 21:04:00,
2013-03-06 15:09:00,26.8,19.7,29.34,WNW,292,9.4,10.3,75,0.00,,,0.00,WUHU21623XXSP,2013-03-06 21:09:00,
2013-03-06 15:14:00,26.8,19.9,29.34,WNW,292,8.9,9.4,75,0.00,,,0.00,WUHU21623XXSP,2013-03-06 21:14:00,
2013-03-06 15:19:00,26.8,19.9,29.34,WNW,292,8.1,9.6,75,0.00,,,0.00,WUHU21623XXSP,2013-03-06 21:19:00,
2013-03-06 15:24:00,26.8,19.9,29.34,WNW,292,9.2,9.6,75,0.00,,,0.00,WUHU21623XXSP,2013-03-06 21:24:00,
2013-03-06 15:29:00,26.8,19.9,29.34,WNW,292,8.1,9.2,75,0.00,,,0.00,WUHU21623XXSP,2013-03-06 21:29:00,
2013-03-06 15:34:00,26.8,19.9,29.34,WNW,292,8.1,9.2,75,0.00,,,0.00,WUHU21623XXSP,2013-03-06 21:34:00,
2013-03-06 15:39:00,26.8,19.9,29.34,WNW,292,9.6,9.6,75,0.00,,,0.00,WUHU21623XXSP,2013-03-06 21:39:00,
2013-03-06 15:44:00,26.6,19.7,29.33,WNW,292,9.8,9.8,75,0.00,,,0.00,WUHU21623XXSP,2013-03-06 21:44:00,
2013-03-06 15:49:00,26.6,19.7,29.34,WNW,292,8.9,9.8,75,0.00,,,0.00,WUHU21623XXSP,2013-03-06 21:49:00,
2013-03-06 15:54:00,26.4,19.5,29.34,WNW,292,5.8,9.8,75,0.00,,,0.00,WUHU21623XXSP,2013-03-06 21:54:00,
2013-03-06 15:59:00,26.4,19.5,29.34,WNW,292,2.0,6.9,75,0.00,,,0.00,WUHU21623XXSP,2013-03-06 21:59:00,
2013-03-06 16:04:00,26.2,19.5,29.34,WNW,292,2.5,5.8,75,0.00,,,0.00,WUHU21623XXSP,2013-03-06 22:04:00,
2013-03-06 16:09:00,26.2,19.6,29.34,West,270,2.5,5.1,76,0.00,,,0.00,WUHU21623XXSP,2013-03-06 22:09:00,
2013-03-06 16:14:00,26.2,19.6,29.34,WNW,292,2.2,2.5,76,0.00,,,0.00,WUHU21623XXSP,2013-03-06 22:14:00,
2013-03-06 16:19:00,26.2,19.6,29.34,WNW,292,2.2,2.2,76,0.00,,,0.00,WUHU21623XXSP,2013-03-06 22:19:00,
2013-03-06 16:24:00,25.7,19.6,29.35,West,270,7.6,7.6,76,0.00,,,0.00,WUHU21623XXSP,2013-03-06 22:24:00,
2013-03-06 16:29:00,25.5,18.6,29.35,WNW,292,4.9,7.6,75,0.00,,,0.00,WUHU21623XXSP,2013-03-06 22:29:00,
2013-03-06 16:34:00,25.2,18.5,29.35,West,270,2.7,4.9,75,0.00,,,0.00,WUHU21623XXSP,2013-03-06 22:34:00,
2013-03-06 16:39:00,25.0,18.1,29.35,West,270,2.7,2.7,75,0.00,,,0.00,WUHU21623XXSP,2013-03-06 22:39:00,
2013-03-06 16:44:00,24.6,18.1,29.35,WNW,292,2.2,2.7,76,0.00,,,0.00,WUHU21623XXSP,2013-03-06 22:44:00,
2013-03-06 16:49:00,24.4,17.9,29.34,WNW,292,2.2,2.2,76,0.00,,,0.00,WUHU21623XXSP,2013-03-06 22:49:00,
2013-03-06 16:54:00,23.7,17.4,29.35,WNW,292,3.6,3.6,76,0.00,,,0.00,WUHU21623XXSP,2013-03-06 22:54:00,
2013-03-06 17:00:00,23.5,17.1,29.35,WNW,292,3.8,3.8,76,0.00,,,0.00,WUHU21623XXSP,2013-03-06 23:00:00,
2013-03-06 17:05:00,23.4,17.1,29.35,WNW,292,3.6,4.0,77,0.00,,,0.00,WUHU21623XXSP,2013-03-06 23:05:00,
2013-03-06 17:10:00,23.0,16.9,29.34,WNW,292,4.3,4.3,77,0.00,,,0.00,WUHU21623XXSP,2013-03-06 23:10:00,
2013-03-06 17:15:00,22.8,16.7,29.34,WNW,292,3.8,4.3,77,0.00,,,0.00,WUHU21623XXSP,2013-03-06 23:15:00,
2013-03-06 17:20:00,22.6,16.5,29.34,WNW,292,4.7,4.7,77,0.00,,,0.00,WUHU21623XXSP,2013-03-06 23:20:00,
2013-03-06 17:25:00,22.1,16.1,29.35,WNW,292,2.9,4.7,77,0.00,,,0.00,WUHU21623XXSP,2013-03-06 23:25:00,
2013-03-06 17:30:00,21.7,15.8,29.35,WNW,292,4.5,4.5,77,0.00,,,0.00,WUHU21623XXSP,2013-03-06 23:30:00,
2013-03-06 17:35:00,21.4,15.5,29.34,West,270,2.5,4.5,78,0.00,,,0.00,WUHU21623XXSP,2013-03-06 23:35:00,
2013-03-06 17:40:00,21.4,15.5,29.35,WNW,292,3.4,4.5,78,0.00,,,0.00,WUHU21623XXSP,2013-03-06 23:40:00,
2013-03-06 17:45:00,20.8,15.0,29.35,WNW,292,2.0,3.4,78,0.00,,,0.00,WUHU21623XXSP,2013-03-06 23:45:00,
2013-03-06 17:50:00,20.1,14.3,29.34,WNW,292,2.7,2.7,78,0.00,,,0.00,WUHU21623XXSP,2013-03-06 23:50:00,
2013-03-06 17:55:00,19.8,13.9,29.35,WNW,292,3.1,3.4,78,0.00,,,0.00,WUHU21623XXSP,2013-03-06 23:55:00,
2013-03-06 18:00:00,19.2,13.4,29.35,WNW,292,2.5,3.8,78,0.00,,,0.00,WUHU21623XXSP,2013-03-07 00:00:00,
2013-03-06 18:05:00,18.5,13.0,29.35,WNW,292,1.1,3.8,79,0.00,,,0.00,WUHU21623XXSP,2013-03-07 00:05:00,
2013-03-06 18:10:00,18.3,12.8,29.35,WNW,292,3.1,3.1,79,0.00,,,0.00,WUHU21623XXSP,2013-03-07 00:10:00,
2013-03-06 18:15:00,18.0,12.7,29.35,WNW,292,3.8,3.8,80,0.00,,,0.00,WUHU21623XXSP,2013-03-07 00:15:00,
2013-03-06 18:20:00,17.4,12.2,29.34,WNW,292,8.3,8.3,80,0.00,,,0.00,WUHU21623XXSP,2013-03-07 00:20:00,
2013-03-06 18:25:00,17.4,12.2,29.34,WNW,292,6.9,8.3,80,0.00,,,0.00,WUHU21623XXSP,2013-03-07 00:25:00,
2013-03-06 18:30:00,16.9,11.7,29.34,NW,315,7.4,7.8,80,0.00,,,0.00,WUHU21623XXSP,2013-03-07 00:30:00,
2013-03-06 18:35:00,16.3,11.2,29.34,NW,315,6.9,7.8,80,0.00,,,0.00,WUHU21623XXSP,2013-03-07 00:35:00,
2013-03-06 18:40:00,16.0,10.9,29.34,NW,315,6.5,8.1,80,0.00,,,0.00,WUHU21623XXSP,2013-03-07 00:40:00,
2013-03-06 18:45:00,15.6,10.6,29.35,WNW,292,4.9,8.1,80,0.00,,,0.00,WUHU21623XXSP,2013-03-07 00:45:00,
2013-03-06 18:50:00,15.6,10.8,29.34,WNW,292,5.4,6.3,81,0.00,,,0.00,WUHU21623XXSP,2013-03-07 00:50:00,
2013-03-06 18:55:00,15.6,10.8,29.35,WNW,292,3.6,6.3,81,0.00,,,0.00,WUHU21623XXSP,2013-03-07 00:55:00,
2013-03-06 19:00:00,15.6,10.8,29.35,West,270,2.5,4.7,81,0.00,,,0.00,WUHU21623XXSP,2013-03-07 01:00:00,
2013-03-06 19:05:00,15.4,10.7,29.35,West,270,2.5,2.5,81,0.00,,,0.00,WUHU21623XXSP,2013-03-07 01:05:00,
2013-03-06 19:10:00,15.4,10.9,29.35,West,270,1.6,2.5,82,0.00,,,0.00,WUHU21623XXSP,2013-03-07 01:10:00,
2013-03-06 19:15:00,15.4,10.9,29.35,West,270,1.6,1.6,82,0.00,,,0.00,WUHU21623XXSP,2013-03-07 01:15:00,
2013-03-06 19:20:00,15.3,10.9,29.35,West,270,2.5,2.5,82,0.00,,,0.00,WUHU21623XXSP,2013-03-07 01:20:00,
2013-03-06 19:25:00,14.9,10.4,29.35,West,270,3.6,3.6,82,0.00,,,0.00,WUHU21623XXSP,2013-03-07 01:25:00,
2013-03-06 19:30:00,14.7,10.5,29.35,West,270,4.7,4.7,83,0.00,,,0.00,WUHU21623XXSP,2013-03-07 01:30:00,
2013-03-06 19:35:00,15.1,10.8,29.36,WSW,247,4.0,4.7,83,0.00,,,0.00,WUHU21623XXSP,2013-03-07 01:35:00,
2013-03-06 19:40:00,14.9,10.6,29.35,West,270,2.7,4.0,83,0.00,,,0.00,WUHU21623XXSP,2013-03-07 01:40:00,
2013-03-06 19:45:00,14.5,10.5,29.35,WNW,292,1.3,3.6,83,0.00,,,0.00,WUHU21623XXSP,2013-03-07 01:45:00,
2013-03-06 19:50:00,14.4,10.4,29.35,West,270,0.9,1.3,84,0.00,,,0.00,WUHU21623XXSP,2013-03-07 01:50:00,
2013-03-06 19:55:00,14.4,10.4,29.35,WNW,292,0.0,1.3,84,0.00,,,0.00,WUHU21623XXSP,2013-03-07 01:55:00,
2013-03-06 20:00:00,14.4,10.4,29.35,WNW,292,1.3,1.3,84,0.00,,,0.00,WUHU21623XXSP,2013-03-07 02:00:00,
2013-03-06 20:05:00,14.4,10.4,29.34,WNW,292,4.0,4.0,84,0.00,,,0.00,WUHU21623XXSP,2013-03-07 02:05:00,
2013-03-06 20:10:00,14.2,10.2,29.34,WNW,292,4.0,4.5,84,0.00,,,0.00,WUHU21623XXSP,2013-03-07 02:10:00,
2013-03-06 20:15:00,13.8,9.9,29.34,NW,315,5.1,5.1,84,0.00,,,0.00,WUHU21623XXSP,2013-03-07 02:15:00,
2013-03-06 20:20:00,13.1,9.1,29.34,NW,315,6.0,6.0,84,0.00,,,0.00,WUHU21623XXSP,2013-03-07 02:20:00,
2013-03-06 20:25:00,12.7,8.8,29.34,NW,315,5.6,6.0,84,0.00,,,0.00,WUHU21623XXSP,2013-03-07 02:25:00,
2013-03-06 20:30:00,12.6,8.6,29.34,NW,315,5.6,6.0,84,0.00,,,0.00,WUHU21623XXSP,2013-03-07 02:30:00,
2013-03-06 20:35:00,12.7,8.8,29.34,WNW,292,3.1,5.6,84,0.00,,,0.00,WUHU21623XXSP,2013-03-07 02:35:00,
2013-03-06 20:40:00,12.9,8.8,29.35,WNW,292,0.0,5.6,84,0.00,,,0.00,WUHU21623XXSP,2013-03-07 02:40:00,
2013-03-06 20:45:00,12.7,8.8,29.35,WNW,292,1.1,1.1,84,0.00,,,0.00,WUHU21623XXSP,2013-03-07 02:45:00,
2013-03-06 20:50:00,12.7,8.8,29.35,WNW,292,0.0,1.1,84,0.00,,,0.00,WUHU21623XXSP,2013-03-07 02:50:00,
2013-03-06 20:55:00,12.7,8.8,29.35,WNW,292,4.3,4.3,84,0.00,,,0.00,WUHU21623XXSP,2013-03-07 02:55:00,
2013-03-06 21:00:00,12.7,9.1,29.34,WNW,292,5.1,5.1,85,0.00,,,0.00,WUHU21623XXSP,2013-03-07 03:00:00,
2013-03-06 21:05:00,12.7,9.1,29.35,WNW,292,3.6,5.1,85,0.00,,,0.00,WUHU21623XXSP,2013-03-07 03:05:00,
2013-03-06 21:10:00,12.7,9.1,29.35,WNW,292,5.4,5.4,85,0.00,,,0.00,WUHU21623XXSP,2013-03-07 03:10:00,
2013-03-06 21:15:00,12.7,9.1,29.35,WNW,292,4.0,5.4,85,0.00,,,0.00,WUHU21623XXSP,2013-03-07 03:15:00,
2013-03-06 21:20:00,12.4,8.7,29.35,WNW,292,3.6,4.7,85,0.00,,,0.00,WUHU21623XXSP,2013-03-07 03:20:00,
2013-03-06 21:25:00,12.0,8.3,29.35,WNW,292,4.0,4.5,85,0.00,,,0.00,WUHU21623XXSP,2013-03-07 03:25:00,
2013-03-06 21:30:00,11.8,8.1,29.35,WNW,292,2.0,4.3,85,0.00,,,0.00,WUHU21623XXSP,2013-03-07 03:30:00,
2013-03-06 21:35:00,11.8,8.1,29.34,WNW,292,4.5,4.5,85,0.00,,,0.00,WUHU21623XXSP,2013-03-07 03:35:00,
2013-03-06 21:40:00,11.7,8.0,29.35,WNW,292,3.4,4.7,85,0.00,,,0.00,WUHU21623XXSP,2013-03-07 03:40:00,
2013-03-06 21:45:00,11.3,7.6,29.35,WNW,292,4.5,5.1,85,0.00,,,0.00,WUHU21623XXSP,2013-03-07 03:45:00,
2013-03-06 21:50:00,11.3,7.6,29.35,WNW,292,5.1,5.1,85,0.00,,,0.00,WUHU21623XXSP,2013-03-07 03:50:00,
2013-03-06 21:55:00,10.9,7.3,29.35,WNW,292,4.9,5.6,85,0.00,,,0.00,WUHU21623XXSP,2013-03-07 03:55:00,
2013-03-06 22:00:00,10.2,6.5,29.34,WNW,292,4.5,5.6,85,0.00,,,0.00,WUHU21623XXSP,2013-03-07 04:00:00,
2013-03-06 22:05:00,10.2,6.5,29.34,WNW,292,4.5,4.7,85,0.00,,,0.00,WUHU21623XXSP,2013-03-07 04:05:00,
2013-03-06 22:10:00,10.6,6.9,29.35,WNW,292,3.6,4.5,85,0.00,,,0.00,WUHU21623XXSP,2013-03-07 04:10:00,
2013-03-06 22:15:00,10.2,6.5,29.35,WNW,292,3.8,4.3,85,0.00,,,0.00,WUHU21623XXSP,2013-03-07 04:15:00,
2013-03-06 22:20:00,10.2,6.5,29.35,WNW,292,3.8,4.3,85,0.00,,,0.00,WUHU21623XXSP,2013-03-07 04:20:00,
2013-03-06 22:25:00,10.2,6.5,29.34,WNW,292,2.9,3.8,85,0.00,,,0.00,WUHU21623XXSP,2013-03-07 04:25:00,
2013-03-06 22:30:00,10.2,6.5,29.34,NW,315,3.8,3.8,85,0.00,,,0.00,WUHU21623XXSP,2013-03-07 04:30:00,
2013-03-06 22:36:00,10.0,6.4,29.34,NW,315,4.5,5.1,85,0.00,,,0.00,WUHU21623XXSP,2013-03-07 04:36:00,
2013-03-06 22:41:00,9.9,6.2,29.34,NW,315,4.5,5.1,85,0.00,,,0.00,WUHU21623XXSP,2013-03-07 04:41:00,
2013-03-06 22:46:00,9.9,6.2,29.34,NW,315,4.3,4.7,85,0.00,,,0.00,WUHU21623XXSP,2013-03-07 04:46:00,
2013-03-06 22:51:00,10.0,6.4,29.34,NW,315,5.1,5.1,85,0.00,,,0.00,WUHU21623XXSP,2013-03-07 04:51:00,
2013-03-06 22:56:00,9.7,6.0,29.34,NW,315,4.3,5.1,85,0.00,,,0.00,WUHU21623XXSP,2013-03-07 04:56:00,
2013-03-06 23:00:00,9.7,6.3,29.34,NW,315,4.5,5.1,86,0.00,,,0.00,WUHU21623XXSP,2013-03-07 05:00:00,
2013-03-06 23:05:00,9.7,6.3,29.34,NW,315,4.7,4.7,86,0.00,,,0.00,WUHU21623XXSP,2013-03-07 05:05:00,
2013-03-06 23:10:00,9.7,6.3,29.34,WNW,292,2.9,4.7,86,0.00,,,0.00,WUHU21623XXSP,2013-03-07 05:10:00,
2013-03-06 23:15:00,9.1,5.8,29.35,NW,315,4.3,4.3,86,0.00,,,0.00,WUHU21623XXSP,2013-03-07 05:15:00,
2013-03-06 23:20:00,8.8,5.2,29.34,WNW,292,3.1,4.3,85,0.00,,,0.00,WUHU21623XXSP,2013-03-07 05:20:00,
2013-03-06 23:25:00,8.4,4.8,29.34,WNW,292,3.1,4.3,85,0.00,,,0.00,WUHU21623XXSP,2013-03-07 05:25:00,
2013-03-06 23:30:00,8.4,4.8,29.34,WNW,292,3.6,3.6,85,0.00,,,0.00,WUHU21623XXSP,2013-03-07 05:30:00,
2013-03-06 23:35:00,8.2,4.6,29.35,WNW,292,2.9,3.6,85,0.00,,,0.00,WUHU21623XXSP,2013-03-07 05:35:00,
2013-03-06 23:40:00,8.1,4.7,29.34,NW,315,3.6,3.6,86,0.00,,,0.00,WUHU21623XXSP,2013-03-07 05:40:00,
2013-03-06 23:45:00,7.9,4.5,29.35,WNW,292,2.2,3.6,86,0.00,,,0.00,WUHU21623XXSP,2013-03-07 05:45:00,
2013-03-06 23:50:00,8.1,4.7,29.35,WNW,292,2.2,3.6,86,0.00,,,0.00,WUHU21623XXSP,2013-03-07 05:50:00,
2013-03-06 23:55:00,7.9,4.5,29.35,WNW,292,2.0,2.2,86,0.00,,,0.00,WUHU21623XXSP,2013-03-07 05:55:00,